SAVT/REL METAR and TAF weather

Enter ICAO airport designator
Station Type Date Time Source
SAVT METAR 2024/01/08 05:20 UTC NOAA

SAVT 080520Z 22015G25KT CAVOK 21/03 Q1007 RMK PP000


Station Type Date Time Source
SAVT Decoded METAR 2024/01/08 05:20 UTC NOAA

Trelew Aerodrome, Argentina (SAVT) 43-12S 065-16W 43M
Jan 08, 2024 - 12:20 AM EST / 2024.01.08 0520 UTC
Wind: from the SW (220 degrees) at 17 MPH (15 KT) gusting to 29 MPH (25 KT):0
Visibility: greater than 7 mile(s):0
Temperature: 69 F (21 C)
Dew Point: 37 F (3 C)
Relative Humidity: 30%
Pressure (altimeter): 29.74 in. Hg (1007 hPa)
ob: SAVT 080520Z 22015G25KT CAVOK 21/03 Q1007 RMK PP000
cycle: 5

Station Type Date Time Source
SAVT TAF 2024/03/20 12:03 UTC NOAA